createdAt,value
2023-01-13T00:01:51.996Z,100458.89
2023-01-13T00:04:17.920Z,100452.02
2023-01-13T00:06:43.816Z,100445.81
2023-01-13T00:09:09.887Z,100441.16
2023-01-13T00:11:35.824Z,100445.91
2023-01-13T00:14:01.850Z,100442.73
2023-01-13T00:16:27.767Z,100439.46
2023-01-13T00:18:53.780Z,100437.48
2023-01-13T00:21:23.466Z,100440.88
2023-01-13T00:23:51.414Z,100441.08
2023-01-13T00:26:19.977Z,100443.77
2023-01-13T00:28:45.949Z,100446.12
2023-01-13T00:31:17.590Z,100443.94
2023-01-13T00:33:44.228Z,100448.92
2023-01-13T00:36:12.915Z,100452.39
2023-01-13T00:38:39.886Z,100447.44
2023-01-13T00:41:08.766Z,100446.19
2023-01-13T00:43:36.494Z,100445.65
2023-01-13T00:46:04.141Z,100442.60
2023-01-13T00:48:31.906Z,100444.16
2023-01-13T00:50:59.175Z,100450.30
2023-01-13T00:53:26.497Z,100447.84
2023-01-13T00:56:00.289Z,100449.86
2023-01-13T00:58:27.248Z,100447.82
2023-01-13T01:00:53.305Z,100453.13
2023-01-13T01:03:19.404Z,100450.89
2023-01-13T01:05:45.318Z,100453.02
2023-01-13T01:08:11.218Z,100443.00
2023-01-13T01:10:37.166Z,100436.79
2023-01-13T01:13:03.124Z,100432.96
2023-01-13T01:15:29.029Z,100435.13
2023-01-13T01:17:54.954Z,100430.81
2023-01-13T01:20:21.001Z,100431.03
2023-01-13T01:22:46.895Z,100432.42
2023-01-13T01:25:13.013Z,100431.27
2023-01-13T01:27:38.895Z,100426.19
2023-01-13T01:30:05.454Z,100420.45
2023-01-13T01:32:34.077Z,100429.52
2023-01-13T01:35:00.037Z,100425.91
2023-01-13T01:37:25.981Z,100421.83
2023-01-13T01:39:51.957Z,100419.89
2023-01-13T01:42:36.953Z,100417.59
2023-01-13T01:45:30.575Z,100410.30
2023-01-13T01:48:02.235Z,100406.40
2023-01-13T01:50:29.473Z,100404.34
2023-01-13T01:53:13.291Z,100407.45
2023-01-13T01:55:39.692Z,100404.58
2023-01-13T01:58:22.649Z,100399.18
2023-01-13T02:00:48.602Z,100388.85
2023-01-13T02:03:16.523Z,100387.40
2023-01-13T02:05:42.585Z,100383.48
2023-01-13T02:08:12.246Z,100386.36
2023-01-13T02:10:40.645Z,100388.20
2023-01-13T02:13:11.618Z,100394.55
2023-01-13T02:15:41.170Z,100394.63
2023-01-13T02:18:36.614Z,100391.70
2023-01-13T02:21:16.409Z,100388.80
2023-01-13T02:24:13.250Z,100381.37
2023-01-13T02:27:07.932Z,100378.67
2023-01-13T02:30:11.175Z,100373.14
2023-01-13T02:32:51.196Z,100360.33
2023-01-13T02:35:39.371Z,100363.34
2023-01-13T02:38:08.049Z,100358.31
2023-01-13T02:40:45.028Z,100351.45
2023-01-13T02:43:41.281Z,100354.11
2023-01-13T02:46:09.537Z,100352.86
2023-01-13T02:48:38.111Z,100346.56
2023-01-13T02:51:09.058Z,100343.42
2023-01-13T02:53:50.031Z,100345.07
2023-01-13T02:56:17.382Z,100344.38
2023-01-13T02:58:46.445Z,100341.99
2023-01-13T03:01:12.518Z,100336.69
2023-01-13T03:03:38.572Z,100332.44
2023-01-13T03:06:25.955Z,100328.96
2023-01-13T03:09:00.413Z,100336.62
2023-01-13T03:11:32.812Z,100332.42
2023-01-13T03:13:58.719Z,100332.91
2023-01-13T03:16:54.615Z,100331.23
2023-01-13T03:19:33.500Z,100332.78
2023-01-13T03:22:17.614Z,100334.13
2023-01-13T03:24:46.611Z,100336.10
2023-01-13T03:27:26.613Z,100340.90
2023-01-13T03:30:03.158Z,100334.77
2023-01-13T03:32:34.828Z,100329.60
2023-01-13T03:35:15.455Z,100330.45
2023-01-13T03:37:46.364Z,100336.89
2023-01-13T03:40:18.358Z,100335.48
2023-01-13T03:43:08.857Z,100336.79
2023-01-13T03:45:38.396Z,100337.89
2023-01-13T03:48:10.616Z,100330.91
2023-01-13T03:50:48.183Z,100324.93
2023-01-13T03:53:21.423Z,100328.21
2023-01-13T03:55:51.806Z,100324.42
2023-01-13T03:58:41.470Z,100321.12
2023-01-13T04:01:59.012Z,100320.56
2023-01-13T04:04:36.365Z,100323.65
2023-01-13T04:07:27.127Z,100324.75
2023-01-13T04:10:00.216Z,100327.89
2023-01-13T04:13:07.880Z,100330.40
2023-01-13T04:15:40.576Z,100333.55
2023-01-13T04:18:11.190Z,100329.86
2023-01-13T04:20:39.319Z,100324.64
2023-01-13T04:23:06.294Z,100325.83
2023-01-13T04:25:33.341Z,100323.89
2023-01-13T04:27:59.358Z,100318.91
2023-01-13T04:30:25.312Z,100322.20
2023-01-13T04:32:51.300Z,100329.15
2023-01-13T04:35:17.286Z,100331.59
2023-01-13T04:37:43.315Z,100335.52
2023-01-13T04:40:09.924Z,100332.58
2023-01-13T04:42:35.925Z,100327.73
2023-01-13T04:45:01.979Z,100327.94
2023-01-13T04:47:27.921Z,100324.27
2023-01-13T04:49:53.889Z,100323.03
2023-01-13T04:52:20.041Z,100330.54
2023-01-13T04:54:45.966Z,100333.24
2023-01-13T04:57:11.930Z,100340.11
2023-01-13T04:59:38.021Z,100336.12
2023-01-13T05:02:03.991Z,100337.55
2023-01-13T05:04:30.274Z,100330.95
2023-01-13T05:06:56.371Z,100329.21
2023-01-13T05:09:22.288Z,100334.91
2023-01-13T05:12:06.914Z,100338.20
2023-01-13T05:14:51.441Z,100342.19
2023-01-13T05:17:20.837Z,100341.60
2023-01-13T05:19:47.008Z,100346.17
2023-01-13T05:22:32.276Z,100346.86
2023-01-13T05:25:16.814Z,100348.50
2023-01-13T05:27:42.851Z,100343.64
2023-01-13T05:30:09.773Z,100340.44
2023-01-13T05:32:35.710Z,100349.27
2023-01-13T05:35:01.690Z,100363.92
2023-01-13T05:37:27.600Z,100364.58
2023-01-13T05:40:12.969Z,100366.11
2023-01-13T05:42:57.851Z,100362.79
2023-01-13T05:45:24.356Z,100349.90
2023-01-13T05:47:50.440Z,100347.02
2023-01-13T05:50:17.388Z,100345.55
2023-01-13T05:52:43.681Z,100345.52
2023-01-13T05:55:11.765Z,100344.64
2023-01-13T05:57:37.734Z,100338.87
2023-01-13T06:00:04.573Z,100334.45
2023-01-13T06:02:37.787Z,100336.25
2023-01-13T06:05:04.046Z,100340.87
2023-01-13T06:07:30.078Z,100342.63
2023-01-13T06:09:55.998Z,100347.48
2023-01-13T06:12:21.975Z,100352.80
2023-01-13T06:14:47.955Z,100362.20
2023-01-13T06:17:15.380Z,100369.98
2023-01-13T06:19:42.183Z,100361.84
2023-01-13T06:22:16.547Z,100356.96
2023-01-13T06:24:45.227Z,100357.05
2023-01-13T06:27:11.953Z,100363.55
2023-01-13T06:29:37.925Z,100365.42
2023-01-13T06:32:12.411Z,100368.57
2023-01-13T06:34:41.188Z,100371.85
2023-01-13T06:37:07.170Z,100373.14
2023-01-13T06:39:35.115Z,100383.88
2023-01-13T06:42:21.059Z,100390.69
2023-01-13T06:44:48.146Z,100377.45
2023-01-13T06:47:14.119Z,100380.37
2023-01-13T06:49:40.135Z,100386.05
2023-01-13T06:52:06.146Z,100392.77
2023-01-13T06:54:34.579Z,100396.61
2023-01-13T06:57:01.513Z,100386.80
2023-01-13T06:59:27.919Z,100379.90
2023-01-13T07:01:54.095Z,100385.41
2023-01-13T07:04:20.286Z,100393.84
2023-01-13T07:06:46.364Z,100390.45
2023-01-13T07:09:12.359Z,100391.70
2023-01-13T07:11:38.397Z,100396.08
2023-01-13T07:14:22.681Z,100392.23
2023-01-13T07:16:48.755Z,100382.68
2023-01-13T07:19:15.515Z,100381.45
2023-01-13T07:21:41.540Z,100384.73
2023-01-13T07:24:07.551Z,100393.14
2023-01-13T07:26:36.012Z,100397.46
2023-01-13T07:29:02.027Z,100394.63
2023-01-13T07:31:28.066Z,100392.63
2023-01-13T07:33:53.972Z,100397.64
2023-01-13T07:36:19.966Z,100405.66
2023-01-13T07:38:45.965Z,100397.90
2023-01-13T07:41:32.130Z,100391.41
2023-01-13T07:44:00.199Z,100391.76
2023-01-13T07:46:26.353Z,100397.34
2023-01-13T07:48:52.263Z,100397.85
2023-01-13T07:51:18.194Z,100398.77
2023-01-13T07:53:44.176Z,100404.85
2023-01-13T07:56:10.241Z,100403.45
2023-01-13T07:58:37.220Z,100406.95
2023-01-13T08:01:11.573Z,100407.46
2023-01-13T08:03:38.712Z,100412.36
2023-01-13T08:06:06.041Z,100422.59
2023-01-13T08:08:32.737Z,100423.98
2023-01-13T08:11:04.249Z,100416.00
2023-01-13T08:13:30.843Z,100414.91
2023-01-13T08:16:05.086Z,100418.73
2023-01-13T08:18:32.105Z,100415.36
2023-01-13T08:21:02.665Z,100409.02
2023-01-13T08:23:28.775Z,100414.86
2023-01-13T08:25:59.573Z,100413.92
2023-01-13T08:28:25.508Z,100404.36
2023-01-13T08:30:55.962Z,100409.97
2023-01-13T08:33:21.954Z,100407.06
2023-01-13T08:35:48.451Z,100403.10
2023-01-13T08:38:14.457Z,100407.04
2023-01-13T08:40:40.417Z,100401.65
2023-01-13T08:43:06.391Z,100396.86
2023-01-13T08:45:32.319Z,100397.00
2023-01-13T08:47:58.505Z,100407.77
2023-01-13T08:50:24.632Z,100409.17
2023-01-13T08:52:50.670Z,100404.52
2023-01-13T08:55:16.779Z,100398.09
2023-01-13T08:57:42.843Z,100399.29
2023-01-13T09:00:09.470Z,100403.52
2023-01-13T09:02:38.449Z,100394.27
2023-01-13T09:05:11.023Z,100400.16
2023-01-13T09:07:38.293Z,100401.30
2023-01-13T09:10:07.092Z,100399.58
2023-01-13T09:12:51.844Z,100405.47
2023-01-13T09:15:18.392Z,100414.45
2023-01-13T09:17:45.730Z,100414.69
2023-01-13T09:20:12.347Z,100417.39
2023-01-13T09:22:43.763Z,100413.88
2023-01-13T09:25:09.970Z,100419.27
2023-01-13T09:27:35.957Z,100422.10
2023-01-13T09:30:01.863Z,100422.32
2023-01-13T09:32:27.799Z,100425.03
2023-01-13T09:34:59.679Z,100428.52
2023-01-13T09:37:28.831Z,100421.45
2023-01-13T09:39:56.234Z,100411.80
2023-01-13T09:43:00.139Z,100405.04
2023-01-13T09:45:42.556Z,100404.08
2023-01-13T09:48:52.344Z,100396.56
2023-01-13T09:51:35.946Z,100395.14
2023-01-13T09:54:11.727Z,100390.17
2023-01-13T09:56:37.773Z,100386.61
2023-01-13T09:59:08.673Z,100387.54
2023-01-13T10:01:40.445Z,100381.42
2023-01-13T10:04:11.468Z,100375.98
2023-01-13T10:06:41.895Z,100383.30
2023-01-13T10:09:27.697Z,100382.64
2023-01-13T10:12:17.493Z,100376.13
2023-01-13T10:15:01.373Z,100369.80
2023-01-13T10:17:44.124Z,100367.76
2023-01-13T10:20:19.306Z,100369.45
2023-01-13T10:22:55.903Z,100374.55
2023-01-13T10:25:46.754Z,100364.38
2023-01-13T10:28:19.428Z,100354.37
2023-01-13T10:30:46.969Z,100349.98
2023-01-13T10:33:22.747Z,100349.14
2023-01-13T10:35:59.475Z,100356.92
2023-01-13T10:38:27.131Z,100350.34
2023-01-13T10:40:56.481Z,100347.34
2023-01-13T10:43:23.552Z,100348.36
2023-01-13T10:46:05.216Z,100346.48
2023-01-13T10:48:34.483Z,100344.70
2023-01-13T10:51:10.869Z,100344.98
2023-01-13T10:54:13.472Z,100347.06
2023-01-13T10:56:43.108Z,100347.45
2023-01-13T10:59:17.855Z,100345.86
2023-01-13T11:02:13.048Z,100348.86
2023-01-13T11:04:54.851Z,100343.76
2023-01-13T11:07:31.036Z,100335.92
2023-01-13T11:10:21.603Z,100331.38
2023-01-13T11:13:17.529Z,100331.19
2023-01-13T11:15:53.163Z,100329.34
2023-01-13T11:18:27.885Z,100322.19
2023-01-13T11:20:55.836Z,100319.75
2023-01-13T11:23:30.607Z,100310.63
2023-01-13T11:26:04.233Z,100305.60
2023-01-13T11:28:50.369Z,100303.48
2023-01-13T11:31:27.002Z,100309.85
2023-01-13T11:33:55.888Z,100310.13
2023-01-13T11:36:48.734Z,100309.27
2023-01-13T11:39:20.662Z,100309.70
2023-01-13T11:42:13.158Z,100308.65
2023-01-13T11:45:10.479Z,100303.48
2023-01-13T11:47:37.633Z,100302.52
2023-01-13T11:50:34.768Z,100296.91
2023-01-13T11:53:06.255Z,100292.27
2023-01-13T11:55:41.290Z,100297.23
2023-01-13T11:58:25.475Z,100291.88
2023-01-13T12:01:23.381Z,100282.81
2023-01-13T12:04:46.595Z,100283.83
2023-01-13T12:07:34.011Z,100278.02
2023-01-13T12:10:23.452Z,100275.13
2023-01-13T12:12:55.301Z,100273.58
2023-01-13T12:15:21.764Z,100273.92
2023-01-13T12:18:10.087Z,100265.65
2023-01-13T12:21:00.783Z,100270.96
2023-01-13T12:23:38.137Z,100264.83
2023-01-13T12:26:14.719Z,100258.02
2023-01-13T12:28:44.801Z,100260.11
2023-01-13T12:31:12.989Z,100257.48
2023-01-13T12:34:17.131Z,100253.36
2023-01-13T12:36:58.132Z,100246.55
2023-01-13T12:39:36.325Z,100242.23
2023-01-13T12:42:49.387Z,100238.18
2023-01-13T12:45:17.309Z,100231.84
2023-01-13T12:47:46.407Z,100230.45
2023-01-13T12:50:40.099Z,100230.81
2023-01-13T12:53:32.100Z,100228.06
2023-01-13T12:56:20.006Z,100225.61
2023-01-13T12:58:46.066Z,100221.14
2023-01-13T13:01:14.402Z,100216.55
2023-01-13T13:04:06.473Z,100212.93
2023-01-13T13:06:38.562Z,100207.08
2023-01-13T13:09:23.131Z,100210.94
2023-01-13T13:11:58.056Z,100212.16
2023-01-13T13:14:39.395Z,100203.57
2023-01-13T13:17:33.308Z,100209.30
2023-01-13T13:20:00.686Z,100209.75
2023-01-13T13:22:26.632Z,100202.81
2023-01-13T13:24:55.646Z,100203.90
2023-01-13T13:27:40.316Z,100204.13
2023-01-13T13:30:48.169Z,100206.81
2023-01-13T13:33:35.289Z,100210.67
2023-01-13T13:36:25.922Z,100208.34
2023-01-13T13:39:44.654Z,100198.71
2023-01-13T13:42:38.623Z,100185.70
2023-01-13T13:45:40.012Z,100186.81
2023-01-13T13:48:23.529Z,100195.79
2023-01-13T13:51:01.240Z,100205.54
2023-01-13T13:53:39.737Z,100198.08
2023-01-13T13:56:16.555Z,100192.02
2023-01-13T13:58:43.100Z,100184.70
2023-01-13T14:01:26.924Z,100175.16
2023-01-13T14:04:06.201Z,100178.22
2023-01-13T14:06:32.439Z,100174.08
2023-01-13T14:08:58.334Z,100170.98
2023-01-13T14:11:32.851Z,100177.16
2023-01-13T14:14:12.388Z,100184.98
2023-01-13T14:16:40.171Z,100189.95
2023-01-13T14:19:27.477Z,100188.34
2023-01-13T14:21:53.502Z,100196.00
2023-01-13T14:24:21.941Z,100198.93
2023-01-13T14:26:52.614Z,100197.95
2023-01-13T14:29:24.220Z,100203.05
2023-01-13T14:31:52.856Z,100198.69
2023-01-13T14:34:31.234Z,100194.53
2023-01-13T14:36:59.892Z,100199.27
2023-01-13T14:39:36.160Z,100207.31
2023-01-13T14:42:03.327Z,100208.66
2023-01-13T14:44:34.180Z,100207.39
2023-01-13T14:47:03.760Z,100207.59
2023-01-13T14:50:05.392Z,100209.77
2023-01-13T14:52:50.012Z,100207.77
2023-01-13T14:55:21.919Z,100206.59
2023-01-13T14:57:48.840Z,100209.27
2023-01-13T15:00:14.762Z,100208.79
2023-01-13T15:02:53.825Z,100204.52
2023-01-13T15:05:32.175Z,100194.86
2023-01-13T15:08:10.671Z,100200.10
2023-01-13T15:10:47.582Z,100200.54
2023-01-13T15:14:05.844Z,100194.81
2023-01-13T15:16:34.715Z,100194.32
2023-01-13T15:19:01.357Z,100199.30
2023-01-13T15:21:27.451Z,100206.33
2023-01-13T15:23:53.481Z,100212.70
2023-01-13T15:26:26.368Z,100214.52
2023-01-13T15:28:55.164Z,100209.00
2023-01-13T15:31:21.243Z,100201.79
2023-01-13T15:33:48.292Z,100197.56
2023-01-13T15:36:31.666Z,100201.26
2023-01-13T15:38:59.445Z,100191.52
2023-01-13T15:41:45.000Z,100192.64
2023-01-13T15:44:36.008Z,100197.84
2023-01-13T15:47:06.119Z,100194.98
2023-01-13T15:49:36.872Z,100202.94
2023-01-13T15:52:21.196Z,100210.50
2023-01-13T15:54:49.099Z,100218.03
2023-01-13T15:57:27.650Z,100217.95
2023-01-13T16:00:00.439Z,100229.66
2023-01-13T16:02:26.893Z,100229.53
2023-01-13T16:04:55.747Z,100227.73
2023-01-13T16:07:23.602Z,100244.65
2023-01-13T16:09:49.697Z,100257.33
2023-01-13T16:12:16.149Z,100253.70
2023-01-13T16:14:42.149Z,100264.18
2023-01-13T16:17:30.324Z,100262.21
2023-01-13T16:19:56.456Z,100246.58
2023-01-13T16:22:22.450Z,100245.78
2023-01-13T16:24:48.454Z,100241.60
2023-01-13T16:27:21.144Z,100247.17
2023-01-13T16:29:48.785Z,100256.91
2023-01-13T16:32:20.330Z,100260.14
2023-01-13T16:34:46.237Z,100258.64
2023-01-13T16:37:19.832Z,100260.84
2023-01-13T16:39:46.562Z,100259.47
2023-01-13T16:42:12.502Z,100261.77
2023-01-13T16:44:38.590Z,100261.17
2023-01-13T16:47:04.627Z,100266.02
2023-01-13T16:49:30.629Z,100274.20
2023-01-13T16:51:56.608Z,100275.84
2023-01-13T16:54:22.601Z,100278.34
2023-01-13T16:56:48.639Z,100285.23
2023-01-13T16:59:14.616Z,100285.42
2023-01-13T17:01:44.164Z,100280.39
2023-01-13T17:04:22.889Z,100280.84
2023-01-13T17:06:55.041Z,100274.09
2023-01-13T17:09:23.832Z,100283.63
2023-01-13T17:11:50.724Z,100288.50
2023-01-13T17:14:20.414Z,100287.40
2023-01-13T17:16:47.048Z,100285.36
2023-01-13T17:19:13.159Z,100289.80
2023-01-13T17:21:39.166Z,100288.05
2023-01-13T17:24:07.190Z,100291.05
2023-01-13T17:26:46.494Z,100298.70
2023-01-13T17:29:15.279Z,100301.86
2023-01-13T17:31:41.845Z,100298.79
2023-01-13T17:34:10.602Z,100300.63
2023-01-13T17:36:36.523Z,100299.34
2023-01-13T17:39:04.355Z,100293.08
2023-01-13T17:41:30.567Z,100297.86
2023-01-13T17:43:56.604Z,100292.17
2023-01-13T17:46:22.726Z,100299.85
2023-01-13T17:48:50.517Z,100304.44
2023-01-13T17:51:18.916Z,100312.91
2023-01-13T17:53:45.157Z,100320.91
2023-01-13T17:56:13.067Z,100324.04
2023-01-13T17:58:46.013Z,100321.19
2023-01-13T18:01:21.913Z,100328.67
2023-01-13T18:03:48.601Z,100326.06
2023-01-13T18:06:23.532Z,100329.21
2023-01-13T18:08:50.099Z,100326.27
2023-01-13T18:11:18.334Z,100323.77
2023-01-13T18:13:49.040Z,100319.08
2023-01-13T18:16:17.959Z,100317.86
2023-01-13T18:18:46.066Z,100312.58
2023-01-13T18:21:41.465Z,100320.31
2023-01-13T18:24:34.704Z,100318.60
2023-01-13T18:27:23.452Z,100321.77
2023-01-13T18:29:52.897Z,100327.16
2023-01-13T18:32:19.969Z,100337.33
2023-01-13T18:35:05.004Z,100340.62
2023-01-13T18:37:41.629Z,100344.56
2023-01-13T18:40:11.281Z,100346.63
2023-01-13T18:42:55.285Z,100350.71
2023-01-13T18:45:30.369Z,100354.41
2023-01-13T18:48:00.018Z,100352.73
2023-01-13T18:50:27.480Z,100361.71
2023-01-13T18:53:00.482Z,100369.25
2023-01-13T18:55:27.985Z,100373.65
2023-01-13T18:57:55.282Z,100383.86
2023-01-13T19:00:22.339Z,100387.20
2023-01-13T19:05:33.738Z,100386.15
2023-01-13T19:08:00.293Z,100375.85
2023-01-13T19:10:31.042Z,100374.80
2023-01-13T19:12:57.142Z,100373.35
2023-01-13T19:15:23.078Z,100370.56
2023-01-13T19:17:49.575Z,100366.23
2023-01-13T19:20:17.248Z,100364.30
2023-01-13T19:22:45.589Z,100373.39
2023-01-13T19:25:12.426Z,100377.88
2023-01-13T19:27:39.350Z,100373.33
2023-01-13T19:30:06.034Z,100371.72
2023-01-13T19:32:32.477Z,100370.51
2023-01-13T19:34:58.931Z,100376.04
2023-01-13T19:37:29.479Z,100378.17
2023-01-13T19:39:57.474Z,100378.08
2023-01-13T19:42:42.110Z,100376.54
2023-01-13T19:45:33.189Z,100373.45
2023-01-13T19:48:04.611Z,100385.42
2023-01-13T19:50:31.233Z,100385.76
2023-01-13T19:52:57.354Z,100388.38
2023-01-13T19:55:23.391Z,100388.38
2023-01-13T19:57:49.362Z,100393.88
2023-01-13T20:00:19.821Z,100389.41
2023-01-13T20:02:51.266Z,100393.33
2023-01-13T20:05:24.991Z,100389.47
2023-01-13T20:07:51.314Z,100383.98
2023-01-13T20:10:19.555Z,100378.66
2023-01-13T20:12:45.506Z,100371.29
2023-01-13T20:15:11.558Z,100373.73
2023-01-13T20:17:37.681Z,100374.02
2023-01-13T20:20:04.595Z,100378.95
2023-01-13T20:22:30.599Z,100383.86
2023-01-13T20:24:56.610Z,100386.53
2023-01-13T20:27:24.534Z,100385.39
2023-01-13T20:29:50.871Z,100376.45
2023-01-13T20:32:16.826Z,100380.52
2023-01-13T20:34:42.763Z,100381.94
2023-01-13T20:37:08.773Z,100380.70
2023-01-13T20:39:35.678Z,100377.55
2023-01-13T20:42:20.300Z,100376.88
2023-01-13T20:44:47.447Z,100382.43
2023-01-13T20:47:14.628Z,100376.67
2023-01-13T20:49:40.882Z,100376.02
2023-01-13T20:52:10.071Z,100381.06
2023-01-13T20:54:38.819Z,100379.05
2023-01-13T20:57:08.844Z,100377.65
2023-01-13T20:59:38.515Z,100377.20
2023-01-13T21:02:06.813Z,100374.70
2023-01-13T21:04:32.935Z,100372.38
2023-01-13T21:06:58.960Z,100367.71
2023-01-13T21:09:26.583Z,100368.83
2023-01-13T21:12:11.581Z,100372.30
2023-01-13T21:14:56.077Z,100382.98
2023-01-13T21:17:41.079Z,100382.48
2023-01-13T21:20:09.843Z,100384.20
2023-01-13T21:22:35.964Z,100387.54
2023-01-13T21:25:03.303Z,100387.89
2023-01-13T21:27:29.665Z,100381.00
2023-01-13T21:29:55.741Z,100385.75
2023-01-13T21:32:21.785Z,100387.59
2023-01-13T21:34:47.845Z,100391.89
2023-01-13T21:37:15.406Z,100395.13
2023-01-13T21:39:42.791Z,100402.10
2023-01-13T21:42:32.002Z,100399.25
2023-01-13T21:45:17.556Z,100388.73
2023-01-13T21:47:49.772Z,100385.14
2023-01-13T21:50:16.591Z,100390.45
2023-01-13T21:52:42.731Z,100394.23
2023-01-13T21:55:24.872Z,100393.19
2023-01-13T21:58:17.394Z,100401.11
2023-01-13T22:00:44.164Z,100410.60
2023-01-13T22:03:13.097Z,100415.94
2023-01-13T22:05:39.619Z,100416.73
2023-01-13T22:08:06.557Z,100417.29
2023-01-13T22:10:34.174Z,100412.45
2023-01-13T22:13:22.922Z,100403.04
2023-01-13T22:16:04.862Z,100402.66
2023-01-13T22:18:30.886Z,100407.42
2023-01-13T22:21:00.510Z,100410.89
2023-01-13T22:23:26.437Z,100413.17
2023-01-13T22:26:00.486Z,100414.23
2023-01-13T22:28:33.419Z,100418.02
2023-01-13T22:31:07.247Z,100416.45
2023-01-13T22:33:33.192Z,100417.23
2023-01-13T22:35:59.165Z,100418.45
2023-01-13T22:38:25.225Z,100419.04
2023-01-13T22:40:59.761Z,100417.19
2023-01-13T22:43:29.707Z,100421.41
2023-01-13T22:46:00.220Z,100428.28
2023-01-13T22:48:27.192Z,100436.17
2023-01-13T22:50:53.428Z,100432.16
2023-01-13T22:53:20.795Z,100427.80
2023-01-13T22:55:54.902Z,100427.79
2023-01-13T22:58:21.710Z,100427.70
2023-01-13T23:00:48.181Z,100425.89
2023-01-13T23:03:14.661Z,100428.11
2023-01-13T23:05:41.110Z,100435.46
2023-01-13T23:08:08.938Z,100438.08
2023-01-13T23:10:34.966Z,100438.51
2023-01-13T23:13:00.933Z,100443.16
2023-01-13T23:15:26.995Z,100445.20
2023-01-13T23:17:52.938Z,100444.95
2023-01-13T23:20:18.971Z,100445.97
2023-01-13T23:22:45.016Z,100444.50
2023-01-13T23:25:11.086Z,100444.59
2023-01-13T23:27:37.073Z,100451.35
2023-01-13T23:30:05.190Z,100455.79
2023-01-13T23:32:31.407Z,100457.65
2023-01-13T23:34:57.370Z,100460.25
2023-01-13T23:37:23.309Z,100459.45
2023-01-13T23:39:49.299Z,100458.89
2023-01-13T23:42:15.299Z,100456.57
2023-01-13T23:44:41.217Z,100458.30
2023-01-13T23:47:09.061Z,100463.94
2023-01-13T23:49:35.114Z,100471.38
2023-01-13T23:52:01.388Z,100475.09
2023-01-13T23:54:27.391Z,100478.36
2023-01-13T23:56:53.536Z,100478.27
2023-01-13T23:59:19.768Z,100473.16
